Time;durP1;ratioP1;P1;durP2;ratioP2;P2;SDS_P1;SDS_P2;PMS_P1;PMS_P2;Temp;Humidity;BMP_temperature;BMP_pressure;BME280_temperature;BME280_humidity;BME280_pressure;Samples;Min_cycle;Max_cycle;Signal;HPM_P1;HPM_P2
2023/05/13 00:02:15;;;;;;;2.80;2.20;;;;;;;10.67;54.52;97056.91;109090;1273;22611;-82
2023/05/13 00:04:49;;;;;;;4.00;2.20;;;;;;;10.72;54.24;97057.50;109139;1273;22550;-82
2023/05/13 00:07:22;;;;;;;3.40;2.30;;;;;;;10.77;54.11;97056.31;109067;1266;22615;-82
2023/05/13 00:09:53;;;;;;;3.40;2.00;;;;;;;10.76;54.02;97059.92;109084;1266;22512;-83
2023/05/13 00:12:24;;;;;;;4.10;2.30;;;;;;;10.79;53.84;97056.95;109111;1273;22526;-83
2023/05/13 00:14:55;;;;;;;5.20;2.30;;;;;;;10.82;53.69;97056.67;109089;1270;22510;-82
2023/05/13 00:17:26;;;;;;;3.50;2.50;;;;;;;10.83;53.75;97050.98;109075;1273;22536;-82
2023/05/13 00:19:57;;;;;;;17.60;8.50;;;;;;;10.78;53.84;97054.04;109129;1266;22603;-83
2023/05/13 00:22:31;;;;;;;4.60;3.50;;;;;;;10.75;53.94;97057.17;109104;1273;22566;-82
2023/05/13 00:25:02;;;;;;;3.80;2.40;;;;;;;10.74;53.82;97054.63;109109;1273;22479;-82
2023/05/13 00:27:34;;;;;;;3.00;2.20;;;;;;;10.77;53.73;97055.15;109100;1273;23849;-83
2023/05/13 00:30:06;;;;;;;2.80;2.00;;;;;;;10.78;53.74;97056.58;109100;1270;22516;-82
2023/05/13 00:32:37;;;;;;;3.50;2.00;;;;;;;10.82;53.60;97060.81;109107;1273;22507;-83
2023/05/13 00:35:09;;;;;;;3.20;1.90;;;;;;;10.83;53.60;97056.83;109103;1268;23224;-83
2023/05/13 00:37:40;;;;;;;4.40;2.30;;;;;;;10.81;53.88;97061.14;109097;1273;22558;-82
2023/05/13 00:40:20;;;;;;;6.30;2.10;;;;;;;10.68;53.92;97059.19;109100;1269;25445;-83
2023/05/13 00:42:51;;;;;;;3.00;2.30;;;;;;;10.65;54.11;97060.46;109101;1266;22523;-82
2023/05/13 00:45:22;;;;;;;3.10;2.30;;;;;;;10.66;54.03;97060.25;109093;1270;22468;-82
2023/05/13 00:47:54;;;;;;;4.60;2.60;;;;;;;10.68;54.14;97063.16;109116;1266;22527;-83
2023/05/13 00:50:29;;;;;;;3.20;2.30;;;;;;;10.69;54.01;97065.18;109123;1273;22851;-83
2023/05/13 00:53:01;;;;;;;4.60;2.20;;;;;;;10.74;53.85;97066.25;109103;1250;22581;-83
2023/05/13 00:55:33;;;;;;;5.80;2.60;;;;;;;10.74;53.79;97066.25;109095;1266;22527;-82
2023/05/13 00:58:04;;;;;;;3.50;2.10;;;;;;;10.73;53.91;97064.77;109122;1273;23996;-82
2023/05/13 01:00:39;;;;;;;3.60;2.10;;;;;;;10.72;53.83;97068.80;109114;1269;22511;-82
2023/05/13 01:03:16;;;;;;;3.50;2.10;;;;;;;10.70;53.98;97068.06;109118;1273;25245;-82
2023/05/13 01:05:54;;;;;;;4.20;2.50;;;;;;;10.71;53.93;97069.91;109107;1273;25417;-82
2023/05/13 01:08:33;;;;;;;5.00;2.60;;;;;;;10.69;54.82;97072.66;109126;1273;24218;-83
2023/05/13 01:11:08;;;;;;;3.80;2.40;;;;;;;10.61;55.38;97071.98;109062;1266;22776;-83
2023/05/13 01:13:42;;;;;;;6.00;3.20;;;;;;;10.58;55.67;97074.48;109116;1273;22564;-83
2023/05/13 01:16:22;;;;;;;3.90;2.80;;;;;;;10.51;56.56;97080.58;109114;1266;22643;-82
2023/05/13 01:18:58;;;;;;;3.30;2.50;;;;;;;10.33;56.95;97078.52;109094;1259;22711;-82
2023/05/13 01:21:34;;;;;;;7.00;5.10;;;;;;;10.29;56.94;97081.39;109089;1269;22642;-82
2023/05/13 01:24:06;;;;;;;7.50;4.70;;;;;;;10.31;56.71;97085.78;109120;1273;22828;-82
2023/05/13 01:26:37;;;;;;;3.90;3.30;;;;;;;10.32;56.61;97080.48;109091;1273;23018;-82
2023/05/13 01:29:08;;;;;;;6.70;5.10;;;;;;;10.35;56.75;97084.83;109122;1273;22582;-83
2023/05/13 01:31:41;;;;;;;9.60;6.10;;;;;;;10.34;56.60;97082.06;109116;1249;22472;-83
2023/05/13 01:34:16;;;;;;;7.30;4.60;;;;;;;10.36;56.18;97079.79;109110;1273;22652;-82
2023/05/13 01:36:48;;;;;;;3.50;2.80;;;;;;;10.40;56.17;97079.83;109126;1266;24219;-82
2023/05/13 01:39:20;;;;;;;3.30;2.40;;;;;;;10.42;56.27;97086.58;109122;1269;24412;-83
2023/05/13 01:41:51;;;;;;;5.80;3.00;;;;;;;10.39;56.97;97087.94;109090;1273;23550;-83
2023/05/13 01:44:25;;;;;;;4.20;3.20;;;;;;;10.30;57.06;97093.46;109114;1269;22547;-82
2023/05/13 01:46:56;;;;;;;5.80;3.10;;;;;;;10.22;57.30;97094.81;109132;1266;22518;-83
2023/05/13 01:49:29;;;;;;;3.60;3.10;;;;;;;10.24;57.62;97093.61;109107;1273;22565;-82
2023/05/13 01:52:01;;;;;;;3.70;2.90;;;;;;;10.27;57.50;97091.45;109086;1270;24235;-82
2023/05/13 01:54:34;;;;;;;4.10;2.60;;;;;;;10.30;57.73;97094.52;109080;1270;22510;-82
2023/05/13 01:57:05;;;;;;;4.50;2.70;;;;;;;10.32;58.00;97088.16;109087;1266;22469;-82
2023/05/13 01:59:36;;;;;;;3.80;2.40;;;;;;;10.29;58.24;97090.92;109095;1271;22455;-83
2023/05/13 02:02:07;;;;;;;4.10;2.60;;;;;;;10.17;58.30;97092.77;109106;1273;22508;-82
2023/05/13 02:04:38;;;;;;;4.10;2.70;;;;;;;10.07;58.63;97092.92;109097;1273;25259;-82
2023/05/13 02:07:11;;;;;;;7.30;5.10;;;;;;;10.06;58.78;97089.80;109138;1273;24214;-82
2023/05/13 02:09:42;;;;;;;6.70;5.30;;;;;;;10.12;58.89;97089.10;109108;1273;22565;-82
2023/05/13 02:12:13;;;;;;;5.40;4.30;;;;;;;10.15;58.93;97091.94;109116;1269;23722;-82
2023/05/13 02:14:47;;;;;;;5.90;5.20;;;;;;;10.18;59.07;97094.80;109110;1273;22649;-82
2023/05/13 02:17:20;;;;;;;9.60;8.20;;;;;;;10.20;59.27;97091.56;109081;1273;22518;-82
2023/05/13 02:19:51;;;;;;;6.30;4.70;;;;;;;10.20;59.19;97092.36;109089;1271;22560;-82
2023/05/13 02:22:22;;;;;;;5.80;4.10;;;;;;;10.20;59.24;97090.23;109107;1273;22579;-82
2023/05/13 02:24:53;;;;;;;4.80;3.80;;;;;;;10.18;59.38;97088.55;109128;1273;22733;-82
2023/05/13 02:27:24;;;;;;;3.40;3.00;;;;;;;10.20;59.47;97091.83;109127;1266;22501;-82
2023/05/13 02:29:55;;;;;;;4.40;2.40;;;;;;;10.21;59.84;97090.72;109111;1271;24362;-82
2023/05/13 02:32:27;;;;;;;4.40;3.20;;;;;;;10.20;59.74;97094.27;109064;1272;22511;-82
2023/05/13 02:34:58;;;;;;;4.50;3.40;;;;;;;10.14;60.18;97096.16;109097;1266;22510;-82
2023/05/13 02:37:30;;;;;;;4.50;3.10;;;;;;;10.12;60.39;97097.38;109124;1266;22531;-82
2023/05/13 02:40:02;;;;;;;3.10;2.80;;;;;;;10.12;60.55;97100.02;109081;1273;25537;-82
2023/05/13 02:42:33;;;;;;;3.40;2.80;;;;;;;10.11;60.51;97100.23;109103;1273;22559;-82
2023/05/13 02:45:04;;;;;;;4.90;2.80;;;;;;;10.13;60.41;97101.79;109124;1273;22507;-82
2023/05/13 02:47:35;;;;;;;4.30;2.60;;;;;;;10.12;60.36;97099.70;109105;1273;22626;-82
2023/05/13 02:50:08;;;;;;;4.50;2.60;;;;;;;10.12;60.01;97102.46;109094;1272;22519;-82
2023/05/13 02:52:42;;;;;;;4.10;2.80;;;;;;;10.12;60.38;97104.95;109086;1273;22485;-82
2023/05/13 02:55:13;;;;;;;3.00;2.70;;;;;;;10.11;60.53;97106.27;109095;1271;22535;-82
2023/05/13 02:57:44;;;;;;;4.30;2.80;;;;;;;10.12;60.41;97108.98;109059;1270;22572;-82
2023/05/13 03:00:18;;;;;;;2.90;2.40;;;;;;;10.12;60.35;97108.13;109102;1272;22515;-82
2023/05/13 03:02:49;;;;;;;3.90;2.70;;;;;;;10.10;60.37;97110.61;109112;1270;24998;-82
2023/05/13 03:05:20;;;;;;;3.30;2.90;;;;;;;10.04;61.05;97112.10;109054;1272;22545;-82
2023/05/13 03:07:51;;;;;;;5.90;3.00;;;;;;;10.03;61.37;97112.58;109129;1271;22512;-82
2023/05/13 03:10:22;;;;;;;4.00;2.60;;;;;;;10.03;61.51;97112.79;109063;1269;22664;-82
2023/05/13 03:12:53;;;;;;;3.50;2.80;;;;;;;10.09;61.70;97115.55;109083;1273;22757;-83
2023/05/13 03:15:24;;;;;;;4.30;2.80;;;;;;;10.14;61.86;97116.63;109140;1269;22582;-82
2023/05/13 03:17:56;;;;;;;2.90;2.60;;;;;;;10.19;61.92;97114.02;109099;1273;24044;-83
2023/05/13 03:20:27;;;;;;;3.40;2.80;;;;;;;10.24;62.05;97118.99;109115;1269;22473;-82
2023/05/13 03:22:58;;;;;;;3.90;2.70;;;;;;;10.25;61.80;97121.27;109098;1266;23276;-82
2023/05/13 03:25:32;;;;;;;3.20;2.60;;;;;;;10.27;61.93;97122.64;109087;1251;22563;-83
2023/05/13 03:28:04;;;;;;;4.50;3.00;;;;;;;10.28;62.30;97125.63;109132;1273;22521;-82
2023/05/13 03:30:35;;;;;;;3.40;3.00;;;;;;;10.25;62.38;97124.66;109153;1254;23120;-82
2023/05/13 03:33:06;;;;;;;4.00;2.60;;;;;;;10.06;62.24;97123.81;109085;1273;22491;-82
2023/05/13 03:35:38;;;;;;;8.30;2.80;;;;;;;9.94;62.71;97120.92;109091;1266;22586;-82
2023/05/13 03:38:09;;;;;;;4.10;2.80;;;;;;;9.92;62.66;97125.95;109101;1273;25352;-82
2023/05/13 03:40:40;;;;;;;7.60;3.00;;;;;;;9.94;62.63;97127.90;109085;1270;22569;-82
2023/05/13 03:43:12;;;;;;;4.40;2.40;;;;;;;10.02;62.68;97127.08;109120;1270;22769;-82
2023/05/13 03:45:47;;;;;;;4.90;3.30;;;;;;;10.14;62.87;97131.98;109142;1273;22522;-82
2023/05/13 03:48:20;;;;;;;3.70;2.50;;;;;;;10.26;63.14;97134.79;109092;1272;25441;-82
2023/05/13 03:50:52;;;;;;;3.30;2.60;;;;;;;10.36;62.81;97139.30;109108;1270;23803;-83
2023/05/13 03:53:23;;;;;;;6.20;3.10;;;;;;;10.47;63.20;97138.42;109104;1269;22955;-82
2023/05/13 03:55:54;;;;;;;4.10;2.50;;;;;;;10.56;63.13;97142.45;109122;1269;22510;-82
2023/05/13 03:58:25;;;;;;;4.90;2.70;;;;;;;10.65;63.03;97147.39;109097;1270;22549;-82
2023/05/13 04:00:56;;;;;;;4.90;2.60;;;;;;;10.72;63.17;97146.97;109130;1273;22620;-82
2023/05/13 04:03:30;;;;;;;5.20;2.80;;;;;;;10.76;63.07;97151.52;109030;1269;130475;-82
2023/05/13 04:06:01;;;;;;;3.10;2.50;;;;;;;10.76;62.92;97152.06;109120;1266;23713;-82
2023/05/13 04:08:32;;;;;;;4.90;3.00;;;;;;;10.74;62.95;97151.80;109128;1269;22574;-82
2023/05/13 04:11:03;;;;;;;3.70;2.70;;;;;;;10.75;62.76;97156.26;109105;1250;22543;-82
2023/05/13 04:13:34;;;;;;;6.00;2.80;;;;;;;10.75;62.44;97152.91;109081;1266;23861;-82
2023/05/13 04:16:06;;;;;;;4.00;2.70;;;;;;;10.82;62.33;97153.23;109080;1270;22514;-82
2023/05/13 04:18:36;;;;;;;4.40;3.00;;;;;;;10.90;61.94;97157.36;109085;1267;22530;-82
2023/05/13 04:21:11;;;;;;;3.90;2.90;;;;;;;10.95;61.78;97158.67;109082;1273;22542;-83
2023/05/13 04:23:42;;;;;;;4.20;3.20;;;;;;;11.03;61.92;97161.02;109102;1273;22575;-82
2023/05/13 04:26:16;;;;;;;3.50;2.70;;;;;;;11.13;61.81;97160.57;109103;1273;23927;-83
2023/05/13 04:28:49;;;;;;;4.10;3.40;;;;;;;11.26;61.94;97160.02;109093;1272;22507;-83
2023/05/13 04:31:21;;;;;;;3.50;3.10;;;;;;;11.38;62.11;97161.95;109081;1273;23444;-83
2023/05/13 04:33:57;;;;;;;6.30;2.90;;;;;;;11.47;62.28;97163.63;109090;1266;23517;-83
2023/05/13 04:36:28;;;;;;;4.10;3.10;;;;;;;11.63;62.14;97163.10;109111;1270;25210;-82
2023/05/13 04:39:02;;;;;;;4.30;3.00;;;;;;;11.78;62.04;97162.69;109101;1266;22504;-82
2023/05/13 04:41:36;;;;;;;3.70;2.50;;;;;;;11.97;61.46;97167.15;109105;1265;25224;-82
2023/05/13 04:44:09;;;;;;;3.00;2.60;;;;;;;12.14;61.33;97165.68;109097;1251;22539;-82
2023/05/13 04:46:43;;;;;;;4.90;2.10;;;;;;;12.40;61.03;97164.89;109099;1273;22511;-83
2023/05/13 04:49:15;;;;;;;6.20;3.30;;;;;;;12.72;60.95;97167.05;109124;1273;24304;-82
2023/05/13 04:51:46;;;;;;;5.60;2.70;;;;;;;13.19;60.02;97165.51;109072;1268;22619;-82
2023/05/13 04:54:18;;;;;;;4.80;2.90;;;;;;;13.62;58.05;97164.39;109093;1273;24215;-82
2023/05/13 04:56:49;;;;;;;3.50;2.80;;;;;;;14.24;58.24;97165.06;109123;1273;22536;-83
2023/05/13 04:59:22;;;;;;;3.00;2.60;;;;;;;15.23;58.20;97167.64;109112;1273;22519;-81
2023/05/13 05:01:53;;;;;;;4.00;2.40;;;;;;;16.46;57.23;97169.98;109071;1272;23531;-81
2023/05/13 05:04:24;;;;;;;3.00;2.20;;;;;;;17.60;55.41;97171.77;109124;1273;25386;-80
2023/05/13 05:06:55;;;;;;;2.90;2.60;;;;;;;18.18;52.74;97176.02;109093;1271;23432;-81
2023/05/13 05:09:26;;;;;;;2.80;2.60;;;;;;;18.83;51.80;97171.34;109099;1273;22541;-81
2023/05/13 05:12:00;;;;;;;2.30;1.90;;;;;;;19.66;50.87;97173.14;109102;1273;22510;-81
2023/05/13 05:14:31;;;;;;;4.50;2.40;;;;;;;20.42;46.50;97167.52;109118;1271;22553;-81
2023/05/13 05:17:02;;;;;;;3.00;2.50;;;;;;;21.17;46.87;97168.48;109123;1273;22518;-81
2023/05/13 05:19:34;;;;;;;3.10;2.00;;;;;;;22.06;45.98;97173.03;109091;1273;22523;-81
2023/05/13 05:22:06;;;;;;;3.70;2.10;;;;;;;23.09;45.34;97171.20;109083;1270;23338;-81
2023/05/13 05:24:39;;;;;;;2.70;2.10;;;;;;;23.82;43.88;97177.89;109112;1273;22563;-81
2023/05/13 05:27:13;;;;;;;2.90;2.40;;;;;;;24.30;41.51;97180.23;109087;1273;22549;-81
2023/05/13 05:29:43;;;;;;;4.10;2.00;;;;;;;23.94;38.67;97179.72;109115;1273;22611;-81
2023/05/13 05:32:15;;;;;;;4.60;2.00;;;;;;;24.25;40.36;97183.48;109105;1251;22520;-81
2023/05/13 05:34:49;;;;;;;3.10;2.20;;;;;;;24.87;39.43;97185.89;109126;1273;22982;-81
2023/05/13 05:37:20;;;;;;;3.20;2.00;;;;;;;25.01;38.12;97181.45;109103;1266;22472;-82
2023/05/13 05:39:51;;;;;;;3.50;2.00;;;;;;;25.20;37.16;97182.13;109156;1273;24359;-81
2023/05/13 05:42:24;;;;;;;2.30;2.00;;;;;;;24.61;33.86;97182.92;109094;1273;23178;-81
2023/05/13 05:44:55;;;;;;;3.80;2.10;;;;;;;23.44;34.42;97181.09;109102;1270;22517;-81
2023/05/13 05:47:26;;;;;;;3.40;2.10;;;;;;;23.23;33.51;97179.77;109115;1273;25249;-82
2023/05/13 05:49:59;;;;;;;3.30;1.80;;;;;;;22.36;33.32;97182.83;109091;1273;22713;-81
2023/05/13 05:52:31;;;;;;;2.70;1.90;;;;;;;22.10;33.33;97180.20;109081;1273;22623;-82
2023/05/13 05:55:06;;;;;;;2.40;1.80;;;;;;;21.86;34.07;97183.66;109112;1268;22511;-82
2023/05/13 05:57:39;;;;;;;3.90;2.10;;;;;;;21.75;35.08;97183.92;109114;1269;22592;-82
2023/05/13 06:00:17;;;;;;;3.00;2.30;;;;;;;22.30;34.55;97183.13;109141;1273;22518;-81
2023/05/13 06:02:50;;;;;;;4.60;2.40;;;;;;;23.02;36.39;97186.05;109117;1273;22527;-82
2023/05/13 06:05:22;;;;;;;2.70;2.10;;;;;;;24.56;36.06;97187.77;109111;1273;22553;-81
2023/05/13 06:07:53;;;;;;;3.40;2.30;;;;;;;25.72;34.47;97183.91;109097;1273;22559;-81
2023/05/13 06:10:24;;;;;;;2.20;2.00;;;;;;;26.11;32.45;97184.38;109094;1273;22585;-82
2023/05/13 06:12:55;;;;;;;4.00;2.40;;;;;;;26.15;32.05;97184.61;109090;1273;23195;-83
2023/05/13 06:15:26;;;;;;;2.10;1.90;;;;;;;26.93;33.06;97183.50;109142;1269;23113;-82
2023/05/13 06:17:58;;;;;;;6.00;1.90;;;;;;;27.19;28.37;97183.48;109141;1273;22592;-82
2023/05/13 06:20:31;;;;;;;3.00;1.90;;;;;;;25.95;28.61;97186.54;109090;1266;22522;-82
2023/05/13 06:23:02;;;;;;;2.80;2.10;;;;;;;26.12;31.39;97190.45;109135;1262;23166;-82
2023/05/13 06:25:34;;;;;;;2.90;1.70;;;;;;;27.62;31.01;97186.82;109103;1273;25323;-82
2023/05/13 06:28:05;;;;;;;3.10;1.70;;;;;;;27.99;29.49;97186.14;109147;1272;22571;-81
2023/05/13 06:30:37;;;;;;;2.70;2.00;;;;;;;27.94;28.31;97189.30;109092;1273;25884;-81
2023/05/13 06:33:09;;;;;;;2.20;2.00;;;;;;;27.59;26.99;97189.14;109104;1273;22581;-81
2023/05/13 06:35:41;;;;;;;2.80;1.90;;;;;;;26.71;28.84;97190.39;109118;1266;22463;-85
2023/05/13 06:38:13;;;;;;;4.20;2.00;;;;;;;27.50;28.04;97195.13;109098;1256;22796;-84
2023/05/13 06:40:44;;;;;;;2.00;1.80;;;;;;;26.43;25.98;97190.66;109073;1273;25620;-80
2023/05/13 06:43:16;;;;;;;2.10;1.80;;;;;;;25.26;28.07;97197.74;109097;1273;22549;-81
2023/05/13 06:45:50;;;;;;;3.80;1.90;;;;;;;26.04;29.34;97193.12;109102;1273;22523;-82
2023/05/13 06:48:21;;;;;;;3.30;2.00;;;;;;;27.29;29.23;97194.64;109103;1273;22932;-82
2023/05/13 06:50:52;;;;;;;2.90;1.80;;;;;;;27.60;25.68;97197.55;109168;1273;22559;-79
2023/05/13 06:53:23;;;;;;;2.80;1.70;;;;;;;26.57;26.28;97196.25;109099;1272;23403;-82
2023/05/13 06:55:54;;;;;;;2.60;1.70;;;;;;;26.12;26.41;97200.17;109102;1273;23759;-83
2023/05/13 06:58:26;;;;;;;2.00;1.60;;;;;;;26.68;28.18;97198.55;109135;1273;24138;-84
2023/05/13 07:00:57;;;;;;;1.70;1.60;;;;;;;28.39;27.43;97199.05;109113;1273;22538;-81
2023/05/13 07:03:28;;;;;;;2.60;1.70;;;;;;;29.40;26.11;97199.98;109136;1272;22632;-82
2023/05/13 07:05:59;;;;;;;2.30;1.60;;;;;;;29.88;25.16;97198.74;109141;1270;22511;-85
2023/05/13 07:08:30;;;;;;;3.00;1.90;;;;;;;29.84;24.31;97197.89;109098;1269;22562;-83
2023/05/13 07:11:01;;;;;;;3.60;2.00;;;;;;;30.07;24.70;97196.33;109107;1273;22483;-81
2023/05/13 07:13:33;;;;;;;3.00;2.10;;;;;;;29.58;22.56;97202.20;109121;1273;22525;-81
2023/05/13 07:16:05;;;;;;;2.00;1.60;;;;;;;27.66;23.39;97203.64;109145;1266;24497;-82
2023/05/13 07:18:36;;;;;;;2.00;1.50;;;;;;;26.79;24.27;97198.27;109130;1266;22514;-81
2023/05/13 07:21:07;;;;;;;2.60;1.50;;;;;;;25.95;24.43;97193.99;109092;1270;22946;-81
2023/05/13 07:23:39;;;;;;;4.40;1.60;;;;;;;25.20;25.55;97198.11;109125;1267;22711;-82
2023/05/13 07:26:10;;;;;;;2.50;1.40;;;;;;;24.65;26.03;97196.39;109102;1273;22577;-81
2023/05/13 07:28:41;;;;;;;3.50;1.60;;;;;;;22.65;27.56;97200.71;109096;1273;22607;-81
2023/05/13 07:31:12;;;;;;;2.20;1.50;;;;;;;20.67;30.24;97204.91;109148;1273;22694;-80
2023/05/13 07:33:43;;;;;;;3.10;2.10;;;;;;;19.57;31.97;97204.98;109130;1272;22544;-81
2023/05/13 07:36:14;;;;;;;3.00;1.50;;;;;;;19.17;32.69;97206.91;109094;1273;22515;-81
2023/05/13 07:38:45;;;;;;;2.50;2.00;;;;;;;18.39;34.09;97205.34;109133;1273;22561;-81
2023/05/13 07:41:16;;;;;;;3.30;1.80;;;;;;;17.96;34.87;97204.17;109080;1269;25280;-81
2023/05/13 07:43:47;;;;;;;4.60;2.50;;;;;;;17.72;36.07;97203.79;109148;1273;22521;-81
2023/05/13 07:46:18;;;;;;;2.40;2.00;;;;;;;17.59;36.90;97205.36;109149;1271;22569;-81
2023/05/13 07:48:49;;;;;;;5.00;2.40;;;;;;;18.55;36.25;97204.84;109150;1270;22792;-81
2023/05/13 07:51:20;;;;;;;3.50;1.80;;;;;;;19.52;35.71;97199.30;109091;1273;22634;-81
2023/05/13 07:53:52;;;;;;;2.90;1.90;;;;;;;21.53;33.94;97194.10;109150;1273;22492;-83
2023/05/13 07:56:23;;;;;;;2.20;1.90;;;;;;;23.32;31.19;97192.97;109124;1270;23878;-80
2023/05/13 07:58:54;;;;;;;2.00;1.80;;;;;;;24.33;29.57;97190.31;109152;1273;22511;-81
2023/05/13 08:01:26;;;;;;;2.30;1.80;;;;;;;25.02;28.87;97189.27;109119;1273;22508;-80
2023/05/13 08:03:57;;;;;;;3.40;1.70;;;;;;;25.54;28.43;97188.79;109151;1273;24241;-81
2023/05/13 08:06:28;;;;;;;1.70;1.60;;;;;;;27.18;27.27;97185.58;109140;1273;22708;-81
2023/05/13 08:09:00;;;;;;;2.50;1.50;;;;;;;27.76;25.14;97188.42;109152;1267;22562;-81
2023/05/13 08:11:31;;;;;;;2.00;1.70;;;;;;;26.45;25.60;97187.99;109123;1270;23716;-80
2023/05/13 08:14:02;;;;;;;3.20;1.70;;;;;;;25.04;27.24;97189.48;109133;1269;22508;-81
2023/05/13 08:16:34;;;;;;;4.70;1.90;;;;;;;24.47;27.64;97190.67;109102;1270;22615;-81
2023/05/13 08:19:05;;;;;;;2.80;1.80;;;;;;;23.02;28.23;97192.67;109135;1273;23877;-81
2023/05/13 08:21:37;;;;;;;3.50;1.80;;;;;;;21.35;30.08;97198.09;109107;1273;23187;-81
2023/05/13 08:24:08;;;;;;;3.50;2.20;;;;;;;19.88;32.40;97200.26;109127;1270;22483;-82
2023/05/13 08:26:39;;;;;;;3.10;2.00;;;;;;;18.99;33.72;97204.34;109110;1273;22502;-83
2023/05/13 08:29:12;;;;;;;2.50;2.30;;;;;;;18.53;35.13;97208.50;109121;1272;22511;-82
2023/05/13 08:31:44;;;;;;;4.10;2.20;;;;;;;17.66;36.47;97215.09;109094;1273;24009;-82
2023/05/13 08:34:15;;;;;;;4.90;2.60;;;;;;;16.76;38.08;97215.54;109087;1271;22645;-83
2023/05/13 08:36:46;;;;;;;4.30;2.20;;;;;;;16.65;38.62;97212.08;109147;1273;22476;-83
2023/05/13 08:39:17;;;;;;;2.60;2.30;;;;;;;16.91;38.58;97208.98;109115;1273;22637;-83
2023/05/13 08:41:49;;;;;;;2.50;2.10;;;;;;;16.95;39.24;97206.70;109119;1273;22471;-83
2023/05/13 08:44:27;;;;;;;3.40;2.60;;;;;;;16.64;39.63;97206.10;109110;1267;23234;-82
2023/05/13 08:47:09;;;;;;;4.20;2.20;;;;;;;16.22;40.46;97207.75;109120;1273;25399;-82
2023/05/13 08:49:40;;;;;;;6.10;2.70;;;;;;;16.13;40.29;97203.43;109358;1270;22482;-82
2023/05/13 08:52:11;;;;;;;4.70;2.80;;;;;;;15.99;40.73;97199.45;109191;1267;24202;-86
2023/05/13 08:54:43;;;;;;;4.00;2.60;;;;;;;15.88;41.03;97203.61;109264;1270;22551;-83
2023/05/13 08:57:14;;;;;;;2.80;2.40;;;;;;;15.98;41.08;97200.48;109137;1273;25453;-82
2023/05/13 08:59:45;;;;;;;3.80;2.80;;;;;;;15.97;40.18;97206.12;109115;1273;24433;-82
2023/05/13 09:02:17;;;;;;;3.50;2.50;;;;;;;15.77;40.92;97203.66;109203;1265;22470;-82
2023/05/13 09:04:55;;;;;;;4.10;2.70;;;;;;;15.72;41.58;97203.02;109140;1273;23059;-81
2023/05/13 09:07:30;;;;;;;3.40;2.00;;;;;;;15.61;41.63;97194.41;109108;1269;25317;-82
2023/05/13 09:10:02;;;;;;;3.00;2.30;;;;;;;15.82;40.83;97195.45;109124;1267;22683;-81
2023/05/13 09:12:49;;;;;;;4.10;2.40;;;;;;;15.98;41.51;97193.58;109085;1273;22476;-81
2023/05/13 09:15:22;;;;;;;4.10;2.30;;;;;;;16.18;41.27;97188.95;109081;1273;24365;-82
2023/05/13 09:17:58;;;;;;;3.50;2.30;;;;;;;16.21;40.88;97186.13;109102;1251;22792;-81
2023/05/13 09:20:31;;;;;;;4.30;2.40;;;;;;;16.17;39.89;97184.15;109108;1271;22528;-81
2023/05/13 09:23:04;;;;;;;4.40;1.90;;;;;;;16.14;40.48;97181.45;109070;1270;22472;-81
2023/05/13 09:25:37;;;;;;;3.80;2.30;;;;;;;16.21;40.54;97178.85;109066;1273;22701;-81
2023/05/13 09:28:14;;;;;;;3.30;2.40;;;;;;;16.27;41.60;97171.59;109120;1273;22636;-82
2023/05/13 09:30:54;;;;;;;5.60;2.80;;;;;;;16.61;40.56;97167.23;109204;1273;23323;-82
2023/05/13 09:33:32;;;;;;;3.40;2.00;;;;;;;17.06;40.32;97162.81;109257;1267;22554;-82
2023/05/13 09:36:08;;;;;;;3.40;2.20;;;;;;;17.60;39.18;97159.50;109443;1272;24214;-79
2023/05/13 09:38:39;;;;;;;3.60;2.30;;;;;;;17.45;39.91;97163.55;109426;1267;24277;-80
2023/05/13 09:41:12;;;;;;;4.40;2.20;;;;;;;17.40;38.40;97164.52;109347;1266;24186;-83
2023/05/13 09:43:43;;;;;;;3.80;2.20;;;;;;;17.30;39.23;97163.23;109410;1269;22531;-83
2023/05/13 09:46:15;;;;;;;2.40;2.00;;;;;;;17.19;38.85;97162.65;109329;1267;22602;-82
2023/05/13 09:48:47;;;;;;;4.60;2.10;;;;;;;17.38;40.02;97161.51;109290;1267;22521;-82
2023/05/13 09:51:19;;;;;;;3.40;2.00;;;;;;;17.61;40.17;97160.58;109119;1273;24626;-82
2023/05/13 09:53:50;;;;;;;2.80;2.30;;;;;;;17.62;39.00;97161.44;109136;1265;22527;-81
2023/05/13 09:56:24;;;;;;;3.70;1.90;;;;;;;17.67;39.17;97160.77;109158;1273;22583;-83
2023/05/13 09:58:56;;;;;;;4.10;2.20;;;;;;;17.70;39.29;97158.35;109114;1273;22817;-83
2023/05/13 10:01:29;;;;;;;2.60;1.90;;;;;;;17.99;38.80;97161.77;109119;1267;22491;-82
2023/05/13 10:04:00;;;;;;;4.40;2.10;;;;;;;17.50;37.50;97162.55;109132;1270;23179;-82
2023/05/13 10:06:33;;;;;;;4.20;2.10;;;;;;;17.09;39.25;97156.95;109141;1251;22805;-84
2023/05/13 10:09:06;;;;;;;3.30;2.10;;;;;;;17.34;39.30;97154.42;109125;1273;22508;-84
2023/05/13 10:11:38;;;;;;;2.20;2.00;;;;;;;17.61;39.28;97155.29;109163;1273;22594;-83
2023/05/13 10:14:10;;;;;;;3.00;2.10;;;;;;;17.84;38.87;97158.25;109167;1267;23863;-83
2023/05/13 10:16:41;;;;;;;3.00;1.80;;;;;;;18.08;38.08;97157.59;109126;1267;22599;-83
2023/05/13 10:19:13;;;;;;;3.40;1.50;;;;;;;18.10;37.76;97156.98;109142;1273;22566;-83
2023/05/13 10:21:44;;;;;;;2.90;1.90;;;;;;;17.88;37.97;97161.10;109104;1273;22529;-83
2023/05/13 10:24:16;;;;;;;2.20;1.50;;;;;;;17.94;38.78;97155.30;109163;1267;25245;-83
2023/05/13 10:26:47;;;;;;;5.10;2.10;;;;;;;18.12;38.80;97152.63;109109;1270;22605;-83
2023/05/13 10:29:20;;;;;;;2.90;1.80;;;;;;;18.32;38.23;97150.71;109131;1273;22549;-82
2023/05/13 10:31:52;;;;;;;3.10;1.80;;;;;;;18.06;38.50;97155.12;109078;1270;22522;-82
2023/05/13 10:34:24;;;;;;;2.90;1.60;;;;;;;17.89;39.33;97154.23;109127;1271;22510;-83
2023/05/13 10:37:14;;;;;;;3.30;1.80;;;;;;;17.55;38.13;97160.80;109140;1267;22664;-83
2023/05/13 10:40:02;;;;;;;;;;;;;;;17.17;39.20;97157.48;109183;1267;23999;-84
2023/05/13 10:42:42;;;;;;;4.40;2.10;;;;;;;17.41;39.66;97155.91;109044;1270;24215;-84
2023/05/13 10:45:16;;;;;;;2.20;1.80;;;;;;;17.63;39.05;97155.60;109165;1273;22526;-83
2023/05/13 10:47:51;;;;;;;3.10;1.70;;;;;;;17.60;38.68;97163.94;109150;1267;25399;-84
2023/05/13 10:50:27;;;;;;;2.60;2.10;;;;;;;17.31;39.04;97167.52;109144;1273;23742;-84
2023/05/13 10:52:58;;;;;;;4.90;1.90;;;;;;;17.62;39.25;97161.24;109092;1273;22614;-84
2023/05/13 10:55:30;;;;;;;2.30;1.80;;;;;;;17.68;38.64;97157.99;109123;1273;22511;-84
2023/05/13 10:58:10;;;;;;;5.00;2.10;;;;;;;17.33;38.50;97160.35;109119;1267;22535;-84
2023/05/13 11:00:43;;;;;;;3.10;1.90;;;;;;;16.68;38.84;97165.10;109172;1273;22491;-84
2023/05/13 11:03:29;;;;;;;3.10;1.80;;;;;;;16.41;40.13;97162.98;109139;1267;23785;-84
2023/05/13 11:06:18;;;;;;;2.30;2.00;;;;;;;16.24;39.59;97163.84;109111;1273;23976;-85
2023/05/13 11:08:51;;;;;;;3.10;2.00;;;;;;;16.39;40.19;97162.70;109161;1267;22569;-85
2023/05/13 11:11:36;;;;;;;2.80;1.90;;;;;;;16.53;39.49;97165.88;109102;1273;22477;-85
2023/05/13 11:14:16;;;;;;;3.80;1.90;;;;;;;16.75;39.64;97163.24;109134;1267;22543;-85
2023/05/13 11:16:55;;;;;;;3.40;2.00;;;;;;;17.06;40.51;97162.77;109134;1266;24211;-86
2023/05/13 11:19:30;;;;;;;3.80;2.20;;;;;;;17.34;39.58;97156.27;109259;1273;22725;-87
2023/05/13 11:22:09;;;;;;;2.50;2.00;;;;;;;17.27;38.87;97162.40;109121;1267;22743;-87
2023/05/13 11:24:41;;;;;;;5.70;2.20;;;;;;;17.01;40.20;97159.78;109134;1270;24211;-86
2023/05/13 11:27:21;;;;;;;3.40;2.30;;;;;;;16.88;40.05;97167.27;109150;1273;22474;-87
2023/05/13 11:29:53;;;;;;;3.80;1.90;;;;;;;16.73;41.04;97164.04;109147;1267;22493;-85
2023/05/13 11:33:01;;;;;;;2.90;2.20;;;;;;;16.67;40.67;97167.27;109102;1273;31951;-86
2023/05/13 11:35:33;;;;;;;3.60;2.30;;;;;;;16.50;41.11;97168.30;108853;1273;22518;-86
2023/05/13 11:38:04;;;;;;;3.20;1.90;;;;;;;16.44;41.33;97167.55;109180;1267;22514;-85
2023/05/13 11:40:37;;;;;;;2.50;2.10;;;;;;;16.29;40.67;97171.81;109106;1273;22527;-85
2023/05/13 11:43:09;;;;;;;3.30;2.40;;;;;;;16.21;42.22;97176.55;109064;1267;22611;-85
2023/05/13 11:45:41;;;;;;;3.20;2.10;;;;;;;16.06;42.11;97174.97;109136;1273;22570;-86
2023/05/13 11:48:22;;;;;;;2.80;2.00;;;;;;;15.92;42.90;97180.22;109138;1267;22515;-86
2023/05/13 11:50:56;;;;;;;3.90;2.40;;;;;;;15.86;42.94;97182.21;109102;1266;28460;-86